sensor_id;sensor_type;location;lat;lon;timestamp;pressure;altitude;pressure_sealevel;temperature;humidity
46464;BME280;32161;48.148;-1.554;2022-12-29T00:00:02;100072.16;;;11.46;95.95
46464;BME280;32161;48.148;-1.554;2022-12-29T00:02:30;100073.53;;;11.71;93.84
46464;BME280;32161;48.148;-1.554;2022-12-29T00:04:58;100076.09;;;11.56;94.04
46464;BME280;32161;48.148;-1.554;2022-12-29T00:07:25;100071.09;;;11.47;95.30
46464;BME280;32161;48.148;-1.554;2022-12-29T00:09:53;100086.53;;;11.42;95.54
46464;BME280;32161;48.148;-1.554;2022-12-29T00:12:21;100079.84;;;11.49;95.52
46464;BME280;32161;48.148;-1.554;2022-12-29T00:14:50;100087.72;;;11.51;95.22
46464;BME280;32161;48.148;-1.554;2022-12-29T00:17:34;100081.41;;;11.67;94.55
46464;BME280;32161;48.148;-1.554;2022-12-29T00:20:03;100083.44;;;11.55;96.25
46464;BME280;32161;48.148;-1.554;2022-12-29T00:22:48;100072.41;;;11.67;96.03
46464;BME280;32161;48.148;-1.554;2022-12-29T00:25:33;100070.19;;;11.64;96.63
46464;BME280;32161;48.148;-1.554;2022-12-29T00:28:19;100073.00;;;11.69;96.55
46464;BME280;32161;48.148;-1.554;2022-12-29T00:31:10;100079.50;;;11.68;97.59
46464;BME280;32161;48.148;-1.554;2022-12-29T00:33:56;100066.28;;;11.55;97.82
46464;BME280;32161;48.148;-1.554;2022-12-29T00:36:43;100070.09;;;11.54;97.42
46464;BME280;32161;48.148;-1.554;2022-12-29T00:39:15;100073.66;;;11.37;97.80
46464;BME280;32161;48.148;-1.554;2022-12-29T00:42:04;100073.13;;;11.57;97.32
46464;BME280;32161;48.148;-1.554;2022-12-29T00:44:49;100076.50;;;11.25;97.81
46464;BME280;32161;48.148;-1.554;2022-12-29T00:47:18;100072.06;;;11.41;97.10
46464;BME280;32161;48.148;-1.554;2022-12-29T00:49:46;100075.50;;;11.32;98.04
46464;BME280;32161;48.148;-1.554;2022-12-29T00:52:13;100076.47;;;11.42;97.52
46464;BME280;32161;48.148;-1.554;2022-12-29T00:54:41;100081.78;;;11.54;97.03
46464;BME280;32161;48.148;-1.554;2022-12-29T00:57:11;100092.38;;;11.34;97.01
46464;BME280;32161;48.148;-1.554;2022-12-29T00:59:41;100083.25;;;11.62;96.05
46464;BME280;32161;48.148;-1.554;2022-12-29T01:02:09;100076.16;;;11.61;95.22
46464;BME280;32161;48.148;-1.554;2022-12-29T01:04:38;100076.34;;;11.54;95.63
46464;BME280;32161;48.148;-1.554;2022-12-29T01:07:06;100067.16;;;11.38;96.28
46464;BME280;32161;48.148;-1.554;2022-12-29T01:09:34;100059.94;;;11.49;95.27
46464;BME280;32161;48.148;-1.554;2022-12-29T01:12:19;100065.78;;;11.58;94.73
46464;BME280;32161;48.148;-1.554;2022-12-29T01:15:08;100064.00;;;11.46;93.61
46464;BME280;32161;48.148;-1.554;2022-12-29T01:17:35;100064.00;;;11.46;93.64
46464;BME280;32161;48.148;-1.554;2022-12-29T01:20:06;100063.09;;;11.41;93.91
46464;BME280;32161;48.148;-1.554;2022-12-29T01:22:34;100067.50;;;11.25;94.57
46464;BME280;32161;48.148;-1.554;2022-12-29T01:25:01;100071.56;;;11.44;93.01
46464;BME280;32161;48.148;-1.554;2022-12-29T01:27:29;100072.00;;;11.53;92.25
46464;BME280;32161;48.148;-1.554;2022-12-29T01:29:57;100077.41;;;11.31;93.57
46464;BME280;32161;48.148;-1.554;2022-12-29T01:32:24;100073.13;;;11.57;92.10
46464;BME280;32161;48.148;-1.554;2022-12-29T01:34:52;100078.25;;;11.54;92.06
46464;BME280;32161;48.148;-1.554;2022-12-29T01:37:21;100078.06;;;11.38;92.35
46464;BME280;32161;48.148;-1.554;2022-12-29T01:39:48;100092.59;;;11.27;93.17
46464;BME280;32161;48.148;-1.554;2022-12-29T01:42:19;100093.56;;;11.21;92.43
46464;BME280;32161;48.148;-1.554;2022-12-29T01:44:54;100098.25;;;11.04;93.51
46464;BME280;32161;48.148;-1.554;2022-12-29T01:47:32;100097.53;;;11.13;93.12
46464;BME280;32161;48.148;-1.554;2022-12-29T01:50:07;100094.16;;;11.23;91.31
46464;BME280;32161;48.148;-1.554;2022-12-29T01:52:41;100095.97;;;11.34;89.53
46464;BME280;32161;48.148;-1.554;2022-12-29T01:55:11;100093.34;;;11.06;90.56
46464;BME280;32161;48.148;-1.554;2022-12-29T01:57:43;100105.75;;;10.96;90.48
46464;BME280;32161;48.148;-1.554;2022-12-29T02:00:14;100091.44;;;11.23;88.19
46464;BME280;32161;48.148;-1.554;2022-12-29T02:02:46;100110.31;;;11.13;87.41
46464;BME280;32161;48.148;-1.554;2022-12-29T02:05:20;100113.97;;;11.02;86.81
46464;BME280;32161;48.148;-1.554;2022-12-29T02:07:51;100119.97;;;11.20;86.05
46464;BME280;32161;48.148;-1.554;2022-12-29T02:10:21;100118.97;;;11.10;84.93
46464;BME280;32161;48.148;-1.554;2022-12-29T02:12:50;100131.34;;;11.17;84.66
46464;BME280;32161;48.148;-1.554;2022-12-29T02:15:20;100139.72;;;11.33;83.58
46464;BME280;32161;48.148;-1.554;2022-12-29T02:18:12;100136.53;;;11.19;83.93
46464;BME280;32161;48.148;-1.554;2022-12-29T02:27:31;100139.75;;;10.99;86.12
46464;BME280;32161;48.148;-1.554;2022-12-29T02:30:11;100129.38;;;11.13;85.86
46464;BME280;32161;48.148;-1.554;2022-12-29T02:32:52;100129.38;;;11.13;85.62
46464;BME280;32161;48.148;-1.554;2022-12-29T02:35:31;100142.91;;;11.08;86.76
46464;BME280;32161;48.148;-1.554;2022-12-29T02:38:11;100139.38;;;11.07;87.24
46464;BME280;32161;48.148;-1.554;2022-12-29T02:40:43;100149.72;;;10.93;87.31
46464;BME280;32161;48.148;-1.554;2022-12-29T02:43:21;100154.75;;;11.02;87.51
46464;BME280;32161;48.148;-1.554;2022-12-29T02:45:56;100159.94;;;10.86;88.13
46464;BME280;32161;48.148;-1.554;2022-12-29T02:48:31;100158.63;;;10.89;88.04
46464;BME280;32161;48.148;-1.554;2022-12-29T02:51:03;100150.31;;;11.12;87.36
46464;BME280;32161;48.148;-1.554;2022-12-29T02:53:34;100160.53;;;11.05;86.89
46464;BME280;32161;48.148;-1.554;2022-12-29T02:56:21;100166.06;;;10.93;87.94
46464;BME280;32161;48.148;-1.554;2022-12-29T02:58:49;100158.88;;;10.87;88.47
46464;BME280;32161;48.148;-1.554;2022-12-29T03:01:29;100145.19;;;10.82;88.11
46464;BME280;32161;48.148;-1.554;2022-12-29T03:04:18;100151.59;;;10.76;89.28
46464;BME280;32161;48.148;-1.554;2022-12-29T03:07:00;100150.06;;;10.80;88.35
46464;BME280;32161;48.148;-1.554;2022-12-29T03:09:39;100155.09;;;10.88;88.32
46464;BME280;32161;48.148;-1.554;2022-12-29T03:12:17;100162.75;;;10.91;88.62
46464;BME280;32161;48.148;-1.554;2022-12-29T03:14:57;100153.13;;;11.00;87.83
46464;BME280;32161;48.148;-1.554;2022-12-29T03:17:51;100154.53;;;11.03;87.78
46464;BME280;32161;48.148;-1.554;2022-12-29T03:20:29;100150.81;;;10.92;88.33
46464;BME280;32161;48.148;-1.554;2022-12-29T03:23:01;100159.28;;;10.79;89.64
46464;BME280;32161;48.148;-1.554;2022-12-29T03:25:33;100155.84;;;11.00;88.68
46464;BME280;32161;48.148;-1.554;2022-12-29T03:28:07;100171.56;;;10.98;88.62
46464;BME280;32161;48.148;-1.554;2022-12-29T03:30:36;100175.69;;;11.01;88.38
46464;BME280;32161;48.148;-1.554;2022-12-29T03:33:10;100173.72;;;10.96;88.92
46464;BME280;32161;48.148;-1.554;2022-12-29T03:35:43;100178.97;;;10.86;89.52
46464;BME280;32161;48.148;-1.554;2022-12-29T03:38:16;100173.06;;;10.89;89.13
46464;BME280;32161;48.148;-1.554;2022-12-29T03:40:51;100172.31;;;10.94;89.05
46464;BME280;32161;48.148;-1.554;2022-12-29T03:43:20;100180.72;;;10.92;88.34
46464;BME280;32161;48.148;-1.554;2022-12-29T03:45:48;100171.06;;;10.85;89.48
46464;BME280;32161;48.148;-1.554;2022-12-29T03:48:15;100166.94;;;10.82;89.52
46464;BME280;32161;48.148;-1.554;2022-12-29T03:50:44;100173.28;;;10.71;90.03
46464;BME280;32161;48.148;-1.554;2022-12-29T03:53:12;100176.66;;;10.78;89.56
46464;BME280;32161;48.148;-1.554;2022-12-29T03:55:40;100179.78;;;10.70;89.64
46464;BME280;32161;48.148;-1.554;2022-12-29T03:58:07;100177.56;;;10.67;89.70
46464;BME280;32161;48.148;-1.554;2022-12-29T04:00:35;100182.72;;;10.68;89.84
46464;BME280;32161;48.148;-1.554;2022-12-29T04:03:02;100181.22;;;10.72;89.09
46464;BME280;32161;48.148;-1.554;2022-12-29T04:05:30;100185.41;;;10.80;88.70
46464;BME280;32161;48.148;-1.554;2022-12-29T04:07:59;100195.56;;;10.56;89.61
46464;BME280;32161;48.148;-1.554;2022-12-29T04:10:27;100193.59;;;10.68;89.20
46464;BME280;32161;48.148;-1.554;2022-12-29T04:12:54;100206.38;;;10.68;89.00
46464;BME280;32161;48.148;-1.554;2022-12-29T04:15:22;100217.84;;;10.70;89.33
46464;BME280;32161;48.148;-1.554;2022-12-29T04:17:50;100220.31;;;10.71;88.87
46464;BME280;32161;48.148;-1.554;2022-12-29T04:20:18;100223.75;;;10.67;89.38
46464;BME280;32161;48.148;-1.554;2022-12-29T04:23:05;100219.06;;;10.62;89.76
46464;BME280;32161;48.148;-1.554;2022-12-29T04:25:34;100214.53;;;10.68;89.50
46464;BME280;32161;48.148;-1.554;2022-12-29T04:28:02;100224.44;;;10.74;89.06
46464;BME280;32161;48.148;-1.554;2022-12-29T04:30:29;100216.78;;;10.71;89.51
46464;BME280;32161;48.148;-1.554;2022-12-29T04:32:57;100219.47;;;10.71;89.35
46464;BME280;32161;48.148;-1.554;2022-12-29T04:35:24;100218.81;;;10.64;90.07
46464;BME280;32161;48.148;-1.554;2022-12-29T04:37:52;100223.50;;;10.68;89.66
46464;BME280;32161;48.148;-1.554;2022-12-29T04:40:21;100233.47;;;10.63;90.04
46464;BME280;32161;48.148;-1.554;2022-12-29T04:42:49;100237.44;;;10.72;90.19
46464;BME280;32161;48.148;-1.554;2022-12-29T04:45:17;100238.78;;;10.86;89.41
46464;BME280;32161;48.148;-1.554;2022-12-29T04:47:45;100250.31;;;10.77;89.96
46464;BME280;32161;48.148;-1.554;2022-12-29T04:50:13;100255.69;;;10.60;90.70
46464;BME280;32161;48.148;-1.554;2022-12-29T04:52:40;100258.66;;;10.58;90.83
46464;BME280;32161;48.148;-1.554;2022-12-29T04:55:08;100255.34;;;10.56;91.02
46464;BME280;32161;48.148;-1.554;2022-12-29T04:57:37;100253.56;;;10.62;90.62
46464;BME280;32161;48.148;-1.554;2022-12-29T05:00:06;100266.91;;;10.63;90.60
46464;BME280;32161;48.148;-1.554;2022-12-29T05:02:36;100258.53;;;10.65;90.65
46464;BME280;32161;48.148;-1.554;2022-12-29T05:05:05;100266.22;;;10.56;90.86
46464;BME280;32161;48.148;-1.554;2022-12-29T05:07:33;100276.13;;;10.62;90.04
46464;BME280;32161;48.148;-1.554;2022-12-29T05:10:00;100284.34;;;10.50;90.84
46464;BME280;32161;48.148;-1.554;2022-12-29T05:12:30;100282.88;;;10.60;90.57
46464;BME280;32161;48.148;-1.554;2022-12-29T05:15:00;100288.31;;;10.60;90.17
46464;BME280;32161;48.148;-1.554;2022-12-29T05:17:29;100286.22;;;10.79;89.64
46464;BME280;32161;48.148;-1.554;2022-12-29T05:19:56;100290.06;;;10.66;90.09
46464;BME280;32161;48.148;-1.554;2022-12-29T05:22:24;100281.72;;;10.56;89.67
46464;BME280;32161;48.148;-1.554;2022-12-29T05:24:52;100283.84;;;10.54;89.78
46464;BME280;32161;48.148;-1.554;2022-12-29T05:27:19;100288.66;;;10.63;89.46
46464;BME280;32161;48.148;-1.554;2022-12-29T05:29:47;100295.69;;;10.47;89.73
46464;BME280;32161;48.148;-1.554;2022-12-29T05:32:16;100295.69;;;10.24;90.50
46464;BME280;32161;48.148;-1.554;2022-12-29T05:34:44;100305.84;;;10.40;90.18
46464;BME280;32161;48.148;-1.554;2022-12-29T05:37:11;100309.53;;;10.34;90.22
46464;BME280;32161;48.148;-1.554;2022-12-29T05:39:39;100311.66;;;10.32;89.87
46464;BME280;32161;48.148;-1.554;2022-12-29T05:42:07;100320.25;;;10.41;89.62
46464;BME280;32161;48.148;-1.554;2022-12-29T05:44:34;100320.38;;;10.46;89.12
46464;BME280;32161;48.148;-1.554;2022-12-29T05:47:02;100323.69;;;10.36;89.79
46464;BME280;32161;48.148;-1.554;2022-12-29T05:49:31;100323.69;;;10.36;89.50
46464;BME280;32161;48.148;-1.554;2022-12-29T05:51:59;100318.03;;;10.38;89.47
46464;BME280;32161;48.148;-1.554;2022-12-29T05:54:26;100312.00;;;10.24;89.71
46464;BME280;32161;48.148;-1.554;2022-12-29T05:56:54;100327.25;;;10.25;89.90
46464;BME280;32161;48.148;-1.554;2022-12-29T05:59:22;100325.00;;;10.10;90.24
46464;BME280;32161;48.148;-1.554;2022-12-29T06:01:49;100323.81;;;10.06;90.68
46464;BME280;32161;48.148;-1.554;2022-12-29T06:04:17;100329.97;;;10.13;89.71
46464;BME280;32161;48.148;-1.554;2022-12-29T06:06:46;100322.63;;;10.14;89.76
46464;BME280;32161;48.148;-1.554;2022-12-29T06:09:14;100318.84;;;9.91;90.14
46464;BME280;32161;48.148;-1.554;2022-12-29T06:11:41;100319.34;;;10.12;89.21
46464;BME280;32161;48.148;-1.554;2022-12-29T06:14:09;100321.81;;;9.90;89.87
46464;BME280;32161;48.148;-1.554;2022-12-29T06:16:37;100323.59;;;9.84;90.22
46464;BME280;32161;48.148;-1.554;2022-12-29T06:19:04;100330.69;;;9.85;90.08
46464;BME280;32161;48.148;-1.554;2022-12-29T06:21:32;100334.09;;;9.81;90.06
46464;BME280;32161;48.148;-1.554;2022-12-29T06:24:01;100324.53;;;9.78;90.07
46464;BME280;32161;48.148;-1.554;2022-12-29T06:26:28;100325.16;;;9.80;89.77
46464;BME280;32161;48.148;-1.554;2022-12-29T06:28:56;100319.56;;;9.75;89.98
46464;BME280;32161;48.148;-1.554;2022-12-29T06:31:23;100318.66;;;9.81;89.57
46464;BME280;32161;48.148;-1.554;2022-12-29T06:33:51;100316.50;;;9.83;88.98
46464;BME280;32161;48.148;-1.554;2022-12-29T06:36:19;100326.31;;;9.84;88.91
46464;BME280;32161;48.148;-1.554;2022-12-29T06:38:46;100327.97;;;9.73;89.57
46464;BME280;32161;48.148;-1.554;2022-12-29T06:41:15;100318.03;;;9.67;89.58
46464;BME280;32161;48.148;-1.554;2022-12-29T06:43:43;100331.25;;;9.64;90.01
46464;BME280;32161;48.148;-1.554;2022-12-29T06:46:10;100323.72;;;9.66;89.33
46464;BME280;32161;48.148;-1.554;2022-12-29T06:48:38;100335.63;;;9.65;89.29
46464;BME280;32161;48.148;-1.554;2022-12-29T06:51:08;100338.19;;;9.60;89.69
46464;BME280;32161;48.148;-1.554;2022-12-29T06:53:36;100341.72;;;9.60;89.54
46464;BME280;32161;48.148;-1.554;2022-12-29T06:56:04;100349.66;;;9.62;89.15
46464;BME280;32161;48.148;-1.554;2022-12-29T06:58:33;100353.31;;;9.67;88.85
46464;BME280;32161;48.148;-1.554;2022-12-29T07:01:01;100353.09;;;9.69;88.87
46464;BME280;32161;48.148;-1.554;2022-12-29T07:03:28;100361.25;;;9.81;88.65
46464;BME280;32161;48.148;-1.554;2022-12-29T07:05:56;100364.63;;;9.64;89.01
46464;BME280;32161;48.148;-1.554;2022-12-29T07:08:24;100378.19;;;9.64;90.30
46464;BME280;32161;48.148;-1.554;2022-12-29T07:10:52;100376.28;;;9.53;90.49
46464;BME280;32161;48.148;-1.554;2022-12-29T07:13:19;100364.16;;;9.56;91.20
46464;BME280;32161;48.148;-1.554;2022-12-29T07:15:48;100362.03;;;9.58;91.63
46464;BME280;32161;48.148;-1.554;2022-12-29T07:18:17;100361.88;;;9.52;91.82
46464;BME280;32161;48.148;-1.554;2022-12-29T07:20:45;100365.66;;;9.51;92.36
46464;BME280;32161;48.148;-1.554;2022-12-29T07:23:12;100366.00;;;9.43;92.45
46464;BME280;32161;48.148;-1.554;2022-12-29T07:25:40;100364.59;;;9.52;92.24
46464;BME280;32161;48.148;-1.554;2022-12-29T07:28:08;100370.53;;;9.49;92.48
46464;BME280;32161;48.148;-1.554;2022-12-29T07:30:37;100381.31;;;9.38;93.37
46464;BME280;32161;48.148;-1.554;2022-12-29T07:33:06;100368.84;;;9.48;93.90
46464;BME280;32161;48.148;-1.554;2022-12-29T07:35:34;100379.97;;;9.59;92.80
46464;BME280;32161;48.148;-1.554;2022-12-29T07:38:02;100384.47;;;9.65;92.04
46464;BME280;32161;48.148;-1.554;2022-12-29T07:40:29;100389.50;;;9.49;92.06
46464;BME280;32161;48.148;-1.554;2022-12-29T07:42:57;100390.81;;;9.59;91.84
46464;BME280;32161;48.148;-1.554;2022-12-29T07:45:25;100403.78;;;9.57;91.45
46464;BME280;32161;48.148;-1.554;2022-12-29T07:47:52;100401.28;;;9.43;92.07
46464;BME280;32161;48.148;-1.554;2022-12-29T07:50:21;100411.22;;;9.49;91.68
46464;BME280;32161;48.148;-1.554;2022-12-29T07:52:49;100422.66;;;9.51;90.99
46464;BME280;32161;48.148;-1.554;2022-12-29T07:55:17;100428.06;;;9.51;90.89
46464;BME280;32161;48.148;-1.554;2022-12-29T07:57:44;100425.03;;;9.60;90.07
46464;BME280;32161;48.148;-1.554;2022-12-29T08:00:13;100428.09;;;9.63;90.23
46464;BME280;32161;48.148;-1.554;2022-12-29T08:02:41;100428.53;;;9.48;91.33
46464;BME280;32161;48.148;-1.554;2022-12-29T08:05:09;100433.88;;;9.55;91.30
46464;BME280;32161;48.148;-1.554;2022-12-29T08:07:38;100436.19;;;9.40;92.26
46464;BME280;32161;48.148;-1.554;2022-12-29T08:10:07;100440.66;;;9.34;92.28
46464;BME280;32161;48.148;-1.554;2022-12-29T08:12:34;100430.72;;;9.28;92.88
46464;BME280;32161;48.148;-1.554;2022-12-29T08:15:02;100446.09;;;9.16;93.31
46464;BME280;32161;48.148;-1.554;2022-12-29T08:17:30;100454.28;;;9.27;92.82
46464;BME280;32161;48.148;-1.554;2022-12-29T08:19:59;100446.31;;;9.14;92.87
46464;BME280;32161;48.148;-1.554;2022-12-29T08:22:26;100453.16;;;9.17;92.80
46464;BME280;32161;48.148;-1.554;2022-12-29T08:24:55;100456.00;;;9.22;92.60
46464;BME280;32161;48.148;-1.554;2022-12-29T08:27:23;100463.88;;;9.12;92.99
46464;BME280;32161;48.148;-1.554;2022-12-29T08:29:51;100456.00;;;9.22;92.30
46464;BME280;32161;48.148;-1.554;2022-12-29T08:32:18;100465.66;;;9.36;91.97
46464;BME280;32161;48.148;-1.554;2022-12-29T08:34:46;100472.28;;;9.22;91.91
46464;BME280;32161;48.148;-1.554;2022-12-29T08:37:14;100474.78;;;9.23;91.97
46464;BME280;32161;48.148;-1.554;2022-12-29T08:39:41;100479.00;;;9.19;92.29
46464;BME280;32161;48.148;-1.554;2022-12-29T08:42:11;100470.81;;;9.08;92.89
46464;BME280;32161;48.148;-1.554;2022-12-29T08:44:38;100477.81;;;9.15;92.99
46464;BME280;32161;48.148;-1.554;2022-12-29T08:47:06;100476.31;;;9.19;92.36
46464;BME280;32161;48.148;-1.554;2022-12-29T08:49:34;100478.63;;;9.16;92.35
46464;BME280;32161;48.148;-1.554;2022-12-29T08:52:01;100486.59;;;9.11;92.54
46464;BME280;32161;48.148;-1.554;2022-12-29T08:54:29;100480.97;;;9.12;93.12
46464;BME280;32161;48.148;-1.554;2022-12-29T08:56:57;100483.38;;;9.20;92.84
46464;BME280;32161;48.148;-1.554;2022-12-29T08:59:26;100490.13;;;9.29;91.97
46464;BME280;32161;48.148;-1.554;2022-12-29T09:01:54;100492.78;;;9.18;92.39
46464;BME280;32161;48.148;-1.554;2022-12-29T09:04:21;100496.84;;;9.27;92.05
46464;BME280;32161;48.148;-1.554;2022-12-29T09:06:50;100500.72;;;9.19;92.62
46464;BME280;32161;48.148;-1.554;2022-12-29T09:09:17;100486.91;;;9.21;92.37
46464;BME280;32161;48.148;-1.554;2022-12-29T09:11:45;100504.09;;;9.15;92.89
46464;BME280;32161;48.148;-1.554;2022-12-29T09:14:13;100496.09;;;9.20;92.60
46464;BME280;32161;48.148;-1.554;2022-12-29T09:16:42;100490.25;;;9.23;92.98
46464;BME280;32161;48.148;-1.554;2022-12-29T09:19:27;100489.38;;;9.22;93.08
46464;BME280;32161;48.148;-1.554;2022-12-29T09:21:55;100493.53;;;9.25;92.77
46464;BME280;32161;48.148;-1.554;2022-12-29T09:24:22;100482.09;;;9.23;92.93
46464;BME280;32161;48.148;-1.554;2022-12-29T09:26:50;100501.16;;;9.35;92.68
46464;BME280;32161;48.148;-1.554;2022-12-29T09:29:17;100489.59;;;9.39;92.88
46464;BME280;32161;48.148;-1.554;2022-12-29T09:31:46;100495.97;;;9.45;92.86
46464;BME280;32161;48.148;-1.554;2022-12-29T09:34:14;100497.28;;;9.42;93.19
46464;BME280;32161;48.148;-1.554;2022-12-29T09:36:41;100500.09;;;9.36;93.78
46464;BME280;32161;48.148;-1.554;2022-12-29T09:39:09;100503.75;;;9.41;93.84
46464;BME280;32161;48.148;-1.554;2022-12-29T09:41:39;100512.59;;;9.67;92.71
46464;BME280;32161;48.148;-1.554;2022-12-29T09:44:15;100512.16;;;9.70;92.44
46464;BME280;32161;48.148;-1.554;2022-12-29T09:46:48;100517.59;;;9.70;92.84
46464;BME280;32161;48.148;-1.554;2022-12-29T09:49:24;100513.06;;;9.64;92.99
46464;BME280;32161;48.148;-1.554;2022-12-29T09:51:55;100528.34;;;9.46;93.44
46464;BME280;32161;48.148;-1.554;2022-12-29T09:54:43;100519.03;;;9.54;92.84
46464;BME280;32161;48.148;-1.554;2022-12-29T09:57:18;100513.34;;;9.74;92.45
46464;BME280;32161;48.148;-1.554;2022-12-29T09:59:50;100522.25;;;9.63;92.37
46464;BME280;32161;48.148;-1.554;2022-12-29T10:02:40;100526.88;;;9.62;93.04
46464;BME280;32161;48.148;-1.554;2022-12-29T10:05:22;100536.53;;;9.88;92.23
46464;BME280;32161;48.148;-1.554;2022-12-29T10:08:03;100531.56;;;9.85;91.82
46464;BME280;32161;48.148;-1.554;2022-12-29T10:10:40;100534.81;;;10.06;91.48
46464;BME280;32161;48.148;-1.554;2022-12-29T10:13:23;100536.28;;;9.90;90.90
46464;BME280;32161;48.148;-1.554;2022-12-29T10:16:01;100539.38;;;9.93;91.44
46464;BME280;32161;48.148;-1.554;2022-12-29T10:18:55;100550.03;;;10.07;90.87
46464;BME280;32161;48.148;-1.554;2022-12-29T10:21:37;100546.75;;;10.05;90.71
46464;BME280;32161;48.148;-1.554;2022-12-29T10:24:10;100550.75;;;10.14;90.21
46464;BME280;32161;48.148;-1.554;2022-12-29T10:26:42;100552.88;;;10.00;91.58
46464;BME280;32161;48.148;-1.554;2022-12-29T10:29:16;100544.50;;;10.13;91.56
46464;BME280;32161;48.148;-1.554;2022-12-29T10:31:50;100546.59;;;10.41;90.69
46464;BME280;32161;48.148;-1.554;2022-12-29T10:34:27;100557.63;;;10.46;89.30
46464;BME280;32161;48.148;-1.554;2022-12-29T10:37:02;100561.50;;;10.50;88.94
46464;BME280;32161;48.148;-1.554;2022-12-29T10:39:36;100563.06;;;10.70;87.85
46464;BME280;32161;48.148;-1.554;2022-12-29T10:42:13;100564.13;;;10.45;89.70
46464;BME280;32161;48.148;-1.554;2022-12-29T10:44:42;100558.34;;;10.65;87.89
46464;BME280;32161;48.148;-1.554;2022-12-29T10:47:16;100548.16;;;10.61;87.93
46464;BME280;32161;48.148;-1.554;2022-12-29T10:49:48;100546.16;;;10.68;88.66
46464;BME280;32161;48.148;-1.554;2022-12-29T10:52:18;100558.47;;;10.70;87.93
46464;BME280;32161;48.148;-1.554;2022-12-29T10:54:51;100549.94;;;10.79;87.07
46464;BME280;32161;48.148;-1.554;2022-12-29T10:57:28;100545.22;;;10.86;86.45
46464;BME280;32161;48.148;-1.554;2022-12-29T10:59:59;100553.84;;;10.83;86.77
46464;BME280;32161;48.148;-1.554;2022-12-29T11:02:47;100551.59;;;10.68;86.13
46464;BME280;32161;48.148;-1.554;2022-12-29T11:05:27;100549.84;;;10.62;85.91
46464;BME280;32161;48.148;-1.554;2022-12-29T11:08:03;100554.66;;;10.60;85.99
46464;BME280;32161;48.148;-1.554;2022-12-29T11:10:37;100554.91;;;10.70;85.68
46464;BME280;32161;48.148;-1.554;2022-12-29T11:13:15;100564.13;;;10.69;84.64
46464;BME280;32161;48.148;-1.554;2022-12-29T11:15:44;100558.19;;;10.60;84.11
46464;BME280;32161;48.148;-1.554;2022-12-29T11:18:24;100551.72;;;10.61;84.75
46464;BME280;32161;48.148;-1.554;2022-12-29T11:20:54;100556.91;;;10.86;83.65
46464;BME280;32161;48.148;-1.554;2022-12-29T11:23:30;100551.84;;;10.78;83.32
46464;BME280;32161;48.148;-1.554;2022-12-29T11:26:17;100547.69;;;10.75;83.45
46464;BME280;32161;48.148;-1.554;2022-12-29T11:28:47;100561.19;;;10.70;83.77
46464;BME280;32161;48.148;-1.554;2022-12-29T11:31:20;100554.66;;;10.71;84.42
46464;BME280;32161;48.148;-1.554;2022-12-29T11:33:49;100559.16;;;10.66;84.06
46464;BME280;32161;48.148;-1.554;2022-12-29T11:36:21;100548.28;;;10.89;82.24
46464;BME280;32161;48.148;-1.554;2022-12-29T11:38:51;100554.44;;;10.96;81.28
46464;BME280;32161;48.148;-1.554;2022-12-29T11:41:23;100561.88;;;10.78;80.78
46464;BME280;32161;48.148;-1.554;2022-12-29T11:43:51;100564.34;;;11.03;80.39
46464;BME280;32161;48.148;-1.554;2022-12-29T11:46:26;100559.97;;;11.25;78.11
46464;BME280;32161;48.148;-1.554;2022-12-29T11:48:56;100564.72;;;11.06;79.27
46464;BME280;32161;48.148;-1.554;2022-12-29T11:51:30;100559.06;;;10.96;79.48
46464;BME280;32161;48.148;-1.554;2022-12-29T11:54:02;100558.81;;;11.09;78.63
46464;BME280;32161;48.148;-1.554;2022-12-29T11:56:36;100559.47;;;11.28;78.23
46464;BME280;32161;48.148;-1.554;2022-12-29T11:59:38;100575.22;;;11.14;78.32
46464;BME280;32161;48.148;-1.554;2022-12-29T12:02:39;100575.34;;;11.19;78.39
46464;BME280;32161;48.148;-1.554;2022-12-29T12:05:24;100580.66;;;11.26;78.16
46464;BME280;32161;48.148;-1.554;2022-12-29T12:08:01;100567.19;;;11.19;79.05
46464;BME280;32161;48.148;-1.554;2022-12-29T12:10:34;100565.19;;;11.27;79.31
46464;BME280;32161;48.148;-1.554;2022-12-29T12:13:22;100571.50;;;11.44;78.61
46464;BME280;32161;48.148;-1.554;2022-12-29T12:15:57;100552.25;;;11.45;78.35
46464;BME280;32161;48.148;-1.554;2022-12-29T12:18:37;100570.09;;;11.41;77.30
46464;BME280;32161;48.148;-1.554;2022-12-29T12:21:15;100558.22;;;11.19;78.82
46464;BME280;32161;48.148;-1.554;2022-12-29T12:24:10;100552.53;;;11.09;78.73
46464;BME280;32161;48.148;-1.554;2022-12-29T12:26:58;100551.69;;;11.20;79.83
46464;BME280;32161;48.148;-1.554;2022-12-29T12:29:35;100552.50;;;11.32;78.80
46464;BME280;32161;48.148;-1.554;2022-12-29T12:32:13;100552.09;;;11.52;77.24
46464;BME280;32161;48.148;-1.554;2022-12-29T12:34:44;100553.03;;;11.58;78.07
46464;BME280;32161;48.148;-1.554;2022-12-29T12:37:37;100545.81;;;11.52;78.22
46464;BME280;32161;48.148;-1.554;2022-12-29T12:40:53;100541.44;;;11.79;76.92
46464;BME280;32161;48.148;-1.554;2022-12-29T12:43:45;100538.75;;;12.08;74.81
46464;BME280;32161;48.148;-1.554;2022-12-29T12:46:42;100544.06;;;11.86;76.38
46464;BME280;32161;48.148;-1.554;2022-12-29T12:49:56;100538.72;;;11.79;76.08
46464;BME280;32161;48.148;-1.554;2022-12-29T12:52:37;100533.84;;;11.93;76.28
46464;BME280;32161;48.148;-1.554;2022-12-29T12:55:39;100535.16;;;11.90;75.19
46464;BME280;32161;48.148;-1.554;2022-12-29T12:58:20;100537.94;;;11.67;76.95
46464;BME280;32161;48.148;-1.554;2022-12-29T13:01:01;100528.09;;;11.78;76.43
46464;BME280;32161;48.148;-1.554;2022-12-29T13:03:51;100522.53;;;11.84;76.19
46464;BME280;32161;48.148;-1.554;2022-12-29T13:06:34;100527.97;;;11.84;75.70
46464;BME280;32161;48.148;-1.554;2022-12-29T13:09:29;100518.47;;;11.87;75.89
46464;BME280;32161;48.148;-1.554;2022-12-29T13:12:11;100524.19;;;11.85;76.15
46464;BME280;32161;48.148;-1.554;2022-12-29T13:14:57;100513.72;;;11.94;74.67
46464;BME280;32161;48.148;-1.554;2022-12-29T13:17:36;100510.34;;;12.04;74.72